createdAt,value
2018-12-02T00:01:36.489Z,99208.82
2018-12-02T00:04:07.975Z,99209.38
2018-12-02T00:06:38.798Z,99209.19
2018-12-02T00:09:09.559Z,99209.67
2018-12-02T00:11:40.280Z,99204.88
2018-12-02T00:14:10.991Z,99212.66
2018-12-02T00:16:41.665Z,99201.09
2018-12-02T00:19:12.282Z,99196.13
2018-12-02T00:21:42.929Z,99194.94
2018-12-02T00:24:13.603Z,99187.97
2018-12-02T00:26:44.312Z,99189.28
2018-12-02T00:29:15.002Z,99180.94
2018-12-02T00:31:45.825Z,99174.06
2018-12-02T00:34:16.489Z,99176.98
2018-12-02T00:36:47.263Z,99178.28
2018-12-02T00:39:17.953Z,99170.69
2018-12-02T00:41:48.878Z,99169.48
2018-12-02T00:44:19.673Z,99179.79
2018-12-02T00:46:50.586Z,99177.17
2018-12-02T00:49:21.314Z,99167.78
2018-12-02T00:51:52.094Z,99172.75
2018-12-02T00:54:22.855Z,99159.23
2018-12-02T00:56:53.483Z,99162.96
2018-12-02T00:59:24.193Z,99151.23
2018-12-02T01:01:54.843Z,99141.44
2018-12-02T01:04:25.569Z,99134.59
2018-12-02T01:06:56.344Z,99130.39
2018-12-02T01:09:26.892Z,99122.67
2018-12-02T01:11:57.554Z,99126.42
2018-12-02T01:14:28.167Z,99116.94
2018-12-02T01:16:58.909Z,99113.55
2018-12-02T01:19:36.323Z,99109.51
2018-12-02T01:22:07.232Z,99107.81
2018-12-02T01:24:38.112Z,99111.01
2018-12-02T01:27:08.887Z,99109.31
2018-12-02T01:29:39.579Z,99099.72
2018-12-02T01:32:10.378Z,99095.88
2018-12-02T01:34:41.009Z,99078.23
2018-12-02T01:37:11.739Z,99077.38
2018-12-02T01:39:42.361Z,99084.61
2018-12-02T01:42:13.196Z,99075.72
2018-12-02T01:44:43.919Z,99072.70
2018-12-02T01:47:14.572Z,99063.89
2018-12-02T01:49:45.278Z,99078.80
2018-12-02T01:52:15.965Z,99079.28
2018-12-02T01:54:46.670Z,99063.50
2018-12-02T01:57:17.279Z,99069.69
2018-12-02T01:59:47.954Z,99060.70
2018-12-02T02:02:18.669Z,99045.95
2018-12-02T02:04:49.311Z,99053.56
2018-12-02T02:07:19.963Z,99037.86
2018-12-02T02:09:50.648Z,99030.64
2018-12-02T02:12:21.462Z,99021.15
2018-12-02T02:14:52.168Z,99029.12
2018-12-02T02:17:22.867Z,99013.34
2018-12-02T02:19:53.527Z,99026.20
2018-12-02T02:22:24.273Z,99019.84
2018-12-02T02:24:55.063Z,99007.72
2018-12-02T02:27:25.717Z,99002.45
2018-12-02T02:29:56.351Z,98983.66
2018-12-02T02:32:27.108Z,98992.97
2018-12-02T02:34:57.845Z,98995.50
2018-12-02T02:37:28.470Z,98994.57
2018-12-02T02:39:59.105Z,98990.98
2018-12-02T02:42:29.836Z,98984.33
2018-12-02T02:45:00.481Z,98973.81
2018-12-02T02:47:31.236Z,98969.20
2018-12-02T02:50:01.875Z,98958.78
2018-12-02T02:52:32.552Z,98955.58
2018-12-02T02:55:03.209Z,98949.47
2018-12-02T02:57:33.891Z,98953.80
2018-12-02T03:00:08.702Z,98940.27
2018-12-02T03:02:39.529Z,98951.07
2018-12-02T03:05:11.841Z,98940.27
2018-12-02T03:07:42.621Z,98953.80
2018-12-02T03:10:20.802Z,98950.22
2018-12-02T03:12:54.415Z,98949.11
2018-12-02T03:15:25.432Z,98952.95
2018-12-02T03:17:56.219Z,98944.95
2018-12-02T03:20:26.948Z,98941.18
2018-12-02T03:22:57.731Z,98937.91
2018-12-02T03:25:28.557Z,98950.03
2018-12-02T03:27:59.270Z,98934.83
2018-12-02T03:30:29.998Z,98927.68
2018-12-02T03:33:00.684Z,98956.33
2018-12-02T03:35:31.430Z,98923.84
2018-12-02T03:38:02.192Z,98925.06
2018-12-02T03:40:32.975Z,98921.22
2018-12-02T03:43:03.657Z,98926.30
2018-12-02T03:45:34.376Z,98912.13
2018-12-02T03:48:05.105Z,98928.76
2018-12-02T03:50:35.843Z,98912.59
2018-12-02T03:53:06.655Z,98909.04
2018-12-02T03:55:37.412Z,98903.68
2018-12-02T03:58:08.111Z,98898.06
2018-12-02T04:00:38.845Z,98891.67
2018-12-02T04:03:09.569Z,98886.88
2018-12-02T04:05:40.220Z,98895.44
2018-12-02T04:08:10.918Z,98894.97
2018-12-02T04:10:41.703Z,98878.35
2018-12-02T04:13:12.327Z,98883.61
2018-12-02T04:18:44.234Z,98881.94
2018-12-02T04:21:14.961Z,98870.97
2018-12-02T04:23:45.592Z,98861.84
2018-12-02T04:26:16.370Z,98862.98
2018-12-02T04:28:47.087Z,98853.14
2018-12-02T04:31:17.813Z,98856.58
2018-12-02T04:33:48.440Z,98845.25
2018-12-02T04:36:19.218Z,98849.66
2018-12-02T04:38:49.908Z,98838.12
2018-12-02T04:41:21.006Z,98836.70
2018-12-02T04:43:51.622Z,98841.39
2018-12-02T04:46:22.237Z,98837.55
2018-12-02T04:48:52.973Z,98824.30
2018-12-02T04:51:25.177Z,98830.88
2018-12-02T04:53:55.333Z,98817.84
2018-12-02T04:56:25.979Z,98804.20
2018-12-02T04:58:56.597Z,98813.96
2018-12-02T05:01:27.334Z,98810.13
2018-12-02T05:03:57.979Z,98794.36
2018-12-02T05:06:28.646Z,98795.10
2018-12-02T05:08:59.307Z,98791.81
2018-12-02T05:11:29.941Z,98790.70
2018-12-02T05:14:00.660Z,98793.33
2018-12-02T05:16:31.357Z,98791.44
2018-12-02T05:19:01.986Z,98784.02
2018-12-02T05:21:32.624Z,98784.38
2018-12-02T05:24:03.309Z,98779.23
2018-12-02T05:26:33.928Z,98773.40
2018-12-02T05:29:04.571Z,98773.49
2018-12-02T05:31:35.234Z,98767.00
2018-12-02T05:34:20.608Z,98760.08
2018-12-02T05:36:51.233Z,98760.92
2018-12-02T05:39:21.874Z,98757.35
2018-12-02T05:41:57.641Z,98754.54
2018-12-02T05:44:28.317Z,98749.39
2018-12-02T05:46:58.933Z,98746.95
2018-12-02T05:49:29.541Z,98742.52
2018-12-02T05:52:00.127Z,98740.55
2018-12-02T05:54:30.792Z,98737.73
2018-12-02T05:57:01.450Z,98742.98
2018-12-02T05:59:32.090Z,98727.33
2018-12-02T06:02:02.718Z,98730.42
2018-12-02T06:04:33.334Z,98723.19
2018-12-02T06:07:03.937Z,98715.41
2018-12-02T06:09:34.606Z,98710.62
2018-12-02T06:12:05.338Z,98705.47
2018-12-02T06:14:36.049Z,98711.74
2018-12-02T06:17:07.183Z,98706.09
2018-12-02T06:19:37.868Z,98717.19
2018-12-02T06:22:08.537Z,98710.56
2018-12-02T06:24:39.153Z,98699.73
2018-12-02T06:27:09.798Z,98698.22
2018-12-02T06:29:40.454Z,98699.39
2018-12-02T06:32:11.067Z,98702.80
2018-12-02T06:34:41.668Z,98701.51
2018-12-02T06:37:12.327Z,98695.29
2018-12-02T06:39:42.963Z,98704.44
2018-12-02T06:42:13.699Z,98711.30
2018-12-02T06:44:44.356Z,98708.43
2018-12-02T06:47:15.020Z,98698.80
2018-12-02T06:49:45.679Z,98697.87
2018-12-02T06:52:16.351Z,98696.41
2018-12-02T06:54:54.564Z,98694.25
2018-12-02T06:57:30.481Z,98688.83
2018-12-02T07:02:22.007Z,98681.91
2018-12-02T07:04:52.586Z,98668.70
2018-12-02T07:07:23.357Z,98673.31
2018-12-02T07:09:54.035Z,98669.94
2018-12-02T07:12:24.658Z,98661.94
2018-12-02T07:14:55.256Z,98667.36
2018-12-02T07:17:28.927Z,98666.63
2018-12-02T07:20:07.542Z,98663.61
2018-12-02T07:22:41.975Z,98666.16
2018-12-02T07:25:21.894Z,98663.56
2018-12-02T07:27:52.557Z,98654.77
2018-12-02T07:30:25.063Z,98662.19
2018-12-02T07:32:54.871Z,98655.34
2018-12-02T07:35:25.543Z,98656.43
2018-12-02T07:38:02.010Z,98650.86
2018-12-02T07:40:36.435Z,98663.97
2018-12-02T07:43:09.687Z,98653.88
2018-12-02T07:45:40.490Z,98658.75
2018-12-02T07:48:11.233Z,98647.03
2018-12-02T07:50:41.869Z,98656.81
2018-12-02T07:53:12.518Z,98654.34
2018-12-02T07:55:43.150Z,98654.15
2018-12-02T07:58:16.215Z,98650.95
2018-12-02T08:00:47.040Z,98646.53
2018-12-02T08:03:17.786Z,98649.98
2018-12-02T08:05:48.466Z,98643.75
2018-12-02T08:08:19.150Z,98629.02
2018-12-02T08:10:49.795Z,98633.86
2018-12-02T08:13:20.399Z,98631.02
2018-12-02T08:15:51.053Z,98634.28
2018-12-02T08:18:21.778Z,98631.80
2018-12-02T08:20:52.464Z,98635.16
2018-12-02T08:23:23.058Z,98644.17
2018-12-02T08:25:53.861Z,98632.34
2018-12-02T08:28:25.026Z,98645.75
2018-12-02T08:30:56.007Z,98638.13
2018-12-02T08:33:27.005Z,98638.75
2018-12-02T08:35:58.016Z,98636.06
2018-12-02T08:38:28.664Z,98631.00
2018-12-02T08:40:59.308Z,98630.22
2018-12-02T08:43:29.947Z,98635.78
2018-12-02T08:46:00.638Z,98652.77
2018-12-02T08:48:31.535Z,98639.21
2018-12-02T08:51:02.221Z,98636.40
2018-12-02T08:53:32.935Z,98649.30
2018-12-02T08:56:03.621Z,98646.82
2018-12-02T08:58:34.274Z,98638.66
2018-12-02T09:01:04.980Z,98642.95
2018-12-02T09:03:35.612Z,98631.52
2018-12-02T09:06:06.326Z,98641.32
2018-12-02T09:08:36.997Z,98651.53
2018-12-02T09:11:08.576Z,98653.70
2018-12-02T09:13:39.282Z,98640.67
2018-12-02T09:16:09.951Z,98629.25
2018-12-02T09:18:40.640Z,98639.78
2018-12-02T09:21:11.345Z,98642.34
2018-12-02T09:23:47.216Z,98631.34
2018-12-02T09:26:12.718Z,98638.38
2018-12-02T09:28:43.431Z,98647.59
2018-12-02T09:31:14.189Z,98635.74
2018-12-02T09:33:44.891Z,98648.72
2018-12-02T09:36:15.605Z,98639.17
2018-12-02T09:38:46.296Z,98641.73
2018-12-02T09:41:16.954Z,98646.18
2018-12-02T09:43:47.697Z,98651.42
2018-12-02T09:46:18.397Z,98649.92
2018-12-02T09:48:49.027Z,98642.98
2018-12-02T09:51:19.738Z,98658.63
2018-12-02T09:53:50.414Z,98645.45
2018-12-02T09:56:21.072Z,98642.47
2018-12-02T09:58:52.050Z,98651.37
2018-12-02T10:01:22.716Z,98663.96
2018-12-02T10:03:53.373Z,98647.69
2018-12-02T10:06:24.053Z,98638.34
2018-12-02T10:08:54.696Z,98652.41
2018-12-02T10:11:25.412Z,98643.67
2018-12-02T10:13:56.255Z,98657.09
2018-12-02T10:16:26.913Z,98647.80
2018-12-02T10:18:57.556Z,98648.86
2018-12-02T10:21:28.201Z,98659.48
2018-12-02T10:23:58.918Z,98650.05
2018-12-02T10:26:29.611Z,98658.48
2018-12-02T10:29:00.347Z,98661.70
2018-12-02T10:31:31.005Z,98668.77
2018-12-02T10:34:01.655Z,98659.92
2018-12-02T10:36:32.366Z,98661.63
2018-12-02T10:39:03.034Z,98660.00
2018-12-02T10:41:33.696Z,98653.14
2018-12-02T10:44:04.439Z,98650.49
2018-12-02T10:46:35.148Z,98641.02
2018-12-02T10:49:06.097Z,98629.45
2018-12-02T10:51:36.789Z,98647.06
2018-12-02T10:54:07.520Z,98632.31
2018-12-02T10:56:38.146Z,98636.30
2018-12-02T10:59:08.828Z,98634.39
2018-12-02T11:01:43.013Z,98637.80
2018-12-02T11:04:13.693Z,98637.45
2018-12-02T11:06:44.337Z,98623.80
2018-12-02T11:09:15.029Z,98634.81
2018-12-02T11:11:45.899Z,98624.30
2018-12-02T11:14:16.560Z,98629.58
2018-12-02T11:16:47.250Z,98612.96
2018-12-02T11:19:17.903Z,98627.50
2018-12-02T11:21:48.619Z,98634.34
2018-12-02T11:24:19.308Z,98635.56
2018-12-02T11:26:50.031Z,98634.11
2018-12-02T11:29:23.571Z,98631.96
2018-12-02T11:31:54.330Z,98628.00
2018-12-02T11:34:25.007Z,98634.97
2018-12-02T11:36:55.679Z,98629.22
2018-12-02T11:39:26.386Z,98636.41
2018-12-02T11:41:57.011Z,98625.61
2018-12-02T11:44:27.640Z,98628.25
2018-12-02T11:46:58.280Z,98632.94
2018-12-02T11:49:29.094Z,98622.00
2018-12-02T11:51:59.693Z,98632.70
2018-12-02T11:54:30.411Z,98641.95
2018-12-02T11:57:01.089Z,98643.27
2018-12-02T11:59:31.802Z,98644.35
2018-12-02T12:02:07.537Z,98649.16
2018-12-02T12:04:33.189Z,98649.61
2018-12-02T12:07:03.974Z,98650.47
2018-12-02T12:09:34.638Z,98646.14
2018-12-02T12:12:05.243Z,98654.04
2018-12-02T12:14:36.146Z,98662.09
2018-12-02T12:17:07.645Z,98658.02
2018-12-02T12:19:38.404Z,98658.38
2018-12-02T12:22:09.124Z,98657.78
2018-12-02T12:24:39.893Z,98658.73
2018-12-02T12:27:10.583Z,98678.08
2018-12-02T12:29:41.335Z,98658.35
2018-12-02T12:32:12.000Z,98664.83
2018-12-02T12:34:42.739Z,98666.28
2018-12-02T12:37:13.401Z,98669.13
2018-12-02T12:39:44.178Z,98681.98
2018-12-02T12:42:14.804Z,98665.45
2018-12-02T12:44:45.643Z,98676.84
2018-12-02T12:47:16.418Z,98678.03
2018-12-02T12:49:47.132Z,98680.67
2018-12-02T12:52:17.771Z,98679.25
2018-12-02T12:54:48.464Z,98661.69
2018-12-02T12:57:19.133Z,98673.69
2018-12-02T13:00:22.845Z,98683.42
2018-12-02T13:02:53.913Z,98679.69
2018-12-02T13:05:26.875Z,98678.61
2018-12-02T13:07:57.653Z,98684.64
2018-12-02T13:10:28.390Z,98674.64
2018-12-02T13:12:59.169Z,98682.30
2018-12-02T13:15:29.966Z,98693.25
2018-12-02T13:18:02.371Z,98679.39
2018-12-02T13:20:38.689Z,98685.32
2018-12-02T13:23:09.492Z,98690.27
2018-12-02T13:25:40.255Z,98699.39
2018-12-02T13:28:11.054Z,98692.64
2018-12-02T13:30:41.890Z,98697.19
2018-12-02T13:33:12.576Z,98690.23
2018-12-02T13:35:43.370Z,98691.56
2018-12-02T13:38:14.039Z,98702.86
2018-12-02T13:40:45.290Z,98702.24
2018-12-02T13:43:19.220Z,98706.11
2018-12-02T13:45:51.028Z,98706.79
2018-12-02T13:48:21.756Z,98710.18
2018-12-02T13:50:52.398Z,98704.62
2018-12-02T13:53:23.075Z,98709.44
2018-12-02T13:55:53.767Z,98718.25
2018-12-02T13:58:24.462Z,98721.00
2018-12-02T14:00:55.170Z,98724.73
2018-12-02T14:03:25.903Z,98721.48
2018-12-02T14:05:56.598Z,98725.81
2018-12-02T14:08:27.494Z,98730.49
2018-12-02T14:10:58.208Z,98728.09
2018-12-02T14:13:29.909Z,98725.64
2018-12-02T14:16:28.631Z,98731.69
2018-12-02T14:19:02.814Z,98732.77
2018-12-02T14:21:33.645Z,98746.00
2018-12-02T14:24:05.258Z,98757.56
2018-12-02T14:26:36.154Z,98745.76
2018-12-02T14:29:19.675Z,98754.92
2018-12-02T14:31:55.438Z,98764.25
2018-12-02T14:34:26.117Z,98764.75
2018-12-02T14:36:56.761Z,98770.79
2018-12-02T14:39:27.471Z,98767.53
2018-12-02T14:41:58.174Z,98775.58
2018-12-02T14:44:29.694Z,98778.14
2018-12-02T14:46:59.660Z,98791.95
2018-12-02T14:49:30.513Z,98789.09
2018-12-02T14:52:01.227Z,98784.41
2018-12-02T14:54:31.879Z,98786.31
2018-12-02T14:57:02.559Z,98787.89
2018-12-02T14:59:33.198Z,98777.31
2018-12-02T15:02:03.899Z,98792.59
2018-12-02T15:04:34.548Z,98786.34
2018-12-02T15:07:05.682Z,98799.31
2018-12-02T15:09:36.438Z,98795.11
2018-12-02T15:12:07.408Z,98794.88
2018-12-02T15:14:38.113Z,98799.21
2018-12-02T15:17:08.834Z,98792.36
2018-12-02T15:19:39.498Z,98800.88
2018-12-02T15:22:10.242Z,98795.34
2018-12-02T15:24:40.894Z,98791.84
2018-12-02T15:27:13.167Z,98789.56
2018-12-02T15:29:43.849Z,98803.98
2018-12-02T15:32:14.531Z,98801.48
2018-12-02T15:34:46.152Z,98799.08
2018-12-02T15:37:16.918Z,98807.34
2018-12-02T15:39:47.606Z,98797.73
2018-12-02T15:42:19.458Z,98810.21
2018-12-02T15:44:50.180Z,98806.38
2018-12-02T15:47:20.961Z,98806.13
2018-12-02T15:49:51.577Z,98804.45
2018-12-02T15:52:22.255Z,98806.38
2018-12-02T15:54:52.875Z,98808.09
2018-12-02T15:57:23.527Z,98811.44
2018-12-02T15:59:54.190Z,98813.09
2018-12-02T16:02:24.807Z,98819.63
2018-12-02T16:04:55.502Z,98814.83
2018-12-02T16:07:26.115Z,98819.05
2018-12-02T16:09:56.766Z,98826.72
2018-12-02T16:12:27.454Z,98814.47
2018-12-02T16:14:58.176Z,98817.22
2018-12-02T16:17:28.994Z,98829.11
2018-12-02T16:19:59.674Z,98824.28
2018-12-02T16:22:30.334Z,98818.91
2018-12-02T16:25:01.077Z,98826.13
2018-12-02T16:27:31.866Z,98822.03
2018-12-02T16:30:02.767Z,98816.25
2018-12-02T16:32:34.128Z,98822.41
2018-12-02T16:35:05.420Z,98822.75
2018-12-02T16:37:36.610Z,98816.02
2018-12-02T16:40:14.023Z,98822.63
2018-12-02T16:42:44.666Z,98816.73
2018-12-02T16:45:17.898Z,98818.53
2018-12-02T16:47:50.474Z,98825.28
2018-12-02T16:50:35.126Z,98822.77
2018-12-02T16:53:15.210Z,98813.73
2018-12-02T16:56:22.404Z,98817.21
2018-12-02T16:59:18.934Z,98821.31
2018-12-02T17:01:54.197Z,98834.64
2018-12-02T17:04:26.096Z,98821.89
2018-12-02T17:06:56.841Z,98828.87
2018-12-02T17:09:27.513Z,98830.09
2018-12-02T17:11:58.287Z,98819.98
2018-12-02T17:14:28.979Z,98820.81
2018-12-02T17:16:59.692Z,98826.61
2018-12-02T17:19:30.518Z,98829.73
2018-12-02T17:22:01.224Z,98821.91
2018-12-02T17:24:32.185Z,98826.48
2018-12-02T17:27:34.575Z,98834.16
2018-12-02T17:30:11.695Z,98832.11
2018-12-02T17:32:42.460Z,98830.42
2018-12-02T17:35:13.160Z,98829.12
2018-12-02T17:37:43.897Z,98833.78
2018-12-02T17:40:20.989Z,98841.87
2018-12-02T17:42:51.734Z,98830.80
2018-12-02T17:45:22.505Z,98832.96
2018-12-02T17:47:53.231Z,98832.25
2018-12-02T17:50:23.916Z,98837.28
2018-12-02T17:52:54.638Z,98825.39
2018-12-02T17:55:25.276Z,98835.73
2018-12-02T17:57:56.297Z,98835.73
2018-12-02T18:00:31.028Z,98830.91
2018-12-02T18:03:03.724Z,98834.52
2018-12-02T18:05:41.022Z,98827.30
2018-12-02T18:08:11.788Z,98842.45
2018-12-02T18:10:42.761Z,98831.50
2018-12-02T18:13:13.521Z,98837.41
2018-12-02T18:15:44.656Z,98838.96
2018-12-02T18:18:15.375Z,98841.27
2018-12-02T18:20:46.081Z,98846.31
2018-12-02T18:23:16.802Z,98847.26
2018-12-02T18:25:47.551Z,98859.66
2018-12-02T18:28:18.383Z,98865.79
2018-12-02T18:30:49.268Z,98865.31
2018-12-02T18:33:20.034Z,98868.92
2018-12-02T18:36:03.406Z,98864.83
2018-12-02T18:38:36.876Z,98881.89
2018-12-02T18:41:12.573Z,98878.28
2018-12-02T18:43:43.244Z,98884.41
2018-12-02T18:46:15.975Z,98887.56
2018-12-02T18:48:46.681Z,98882.14
2018-12-02T18:51:17.352Z,98882.88
2018-12-02T18:53:48.011Z,98884.31
2018-12-02T18:56:18.710Z,98892.23
2018-12-02T18:58:49.378Z,98883.58
2018-12-02T19:01:20.198Z,98888.88
2018-12-02T19:03:50.874Z,98896.33
2018-12-02T19:06:21.697Z,98895.74
2018-12-02T19:08:52.409Z,98883.95
2018-12-02T19:11:23.253Z,98902.81
2018-12-02T19:13:53.976Z,98891.03
2018-12-02T19:16:24.700Z,98891.98
2018-12-02T19:18:55.400Z,98888.37
2018-12-02T19:21:28.811Z,98899.22
2018-12-02T19:24:00.478Z,98889.34
2018-12-02T19:26:31.283Z,98890.19
2018-12-02T19:29:01.997Z,98891.15
2018-12-02T19:31:32.727Z,98893.20
2018-12-02T19:34:03.545Z,98882.38
2018-12-02T19:36:39.332Z,98885.98
2018-12-02T19:39:11.930Z,98895.23
2018-12-02T19:41:42.702Z,98890.08
2018-12-02T19:44:13.410Z,98895.25
2018-12-02T19:46:44.974Z,98891.98
2018-12-02T19:49:15.627Z,98901.59
2018-12-02T19:51:46.416Z,98892.00
2018-12-02T19:54:17.066Z,98895.47
2018-12-02T19:56:47.834Z,98894.27
2018-12-02T19:59:18.505Z,98887.78
2018-12-02T20:01:49.330Z,98888.26
2018-12-02T20:04:20.019Z,98881.89
2018-12-02T20:06:50.730Z,98884.41
2018-12-02T20:09:21.596Z,98883.33
2018-12-02T20:11:52.369Z,98886.13
2018-12-02T20:14:23.215Z,98872.89
2018-12-02T20:16:53.921Z,98881.19
2018-12-02T20:19:29.946Z,98883.23
2018-12-02T20:22:00.677Z,98888.14
2018-12-02T20:24:36.667Z,98891.27
2018-12-02T20:27:07.502Z,98887.67
2018-12-02T20:29:38.255Z,98895.00
2018-12-02T20:32:11.150Z,98894.62
2018-12-02T20:34:42.000Z,98890.30
2018-12-02T20:37:12.743Z,98886.64
2018-12-02T20:39:43.418Z,98887.84
2018-12-02T20:42:14.197Z,98881.59
2018-12-02T20:44:45.053Z,98878.72
2018-12-02T20:47:15.961Z,98876.80
2018-12-02T20:49:47.107Z,98881.47
2018-12-02T20:52:17.804Z,98874.95
2018-12-02T20:54:48.450Z,98873.16
2018-12-02T20:57:19.142Z,98867.64
2018-12-02T20:59:49.845Z,98867.03
2018-12-02T21:02:20.490Z,98864.86
2018-12-02T21:04:51.250Z,98867.72
2018-12-02T21:07:22.024Z,98859.42
2018-12-02T21:09:52.771Z,98868.23
2018-12-02T21:12:23.532Z,98862.41
2018-12-02T21:14:54.239Z,98866.53
2018-12-02T21:17:24.917Z,98854.77
2018-12-02T21:19:55.664Z,98851.52
2018-12-02T21:22:26.338Z,98852.37
2018-12-02T21:24:56.956Z,98856.58
2018-12-02T21:27:27.610Z,98862.46
2018-12-02T21:29:58.502Z,98852.84
2018-12-02T21:32:29.199Z,98848.75
2018-12-02T21:34:59.959Z,98838.20
2018-12-02T21:37:30.682Z,98838.68
2018-12-02T21:40:01.370Z,98846.48
2018-12-02T21:42:32.023Z,98834.00
2018-12-02T21:45:02.681Z,98850.10
2018-12-02T21:47:33.380Z,98832.92
2018-12-02T21:50:06.424Z,98835.56
2018-12-02T21:52:37.148Z,98837.48
2018-12-02T21:55:09.149Z,98841.92
2018-12-02T21:57:39.845Z,98832.55
2018-12-02T22:01:18.721Z,98829.77
2018-12-02T22:03:49.419Z,98834.35
2018-12-02T22:06:20.119Z,98831.22
2018-12-02T22:08:50.806Z,98838.20
2018-12-02T22:11:21.532Z,98834.36
2018-12-02T22:13:52.174Z,98831.86
2018-12-02T22:16:22.835Z,98830.39
2018-12-02T22:18:53.496Z,98835.44
2018-12-02T22:21:24.182Z,98842.18
2018-12-02T22:23:54.867Z,98834.49
2018-12-02T22:26:25.551Z,98838.84
2018-12-02T22:28:57.377Z,98838.70
2018-12-02T22:31:26.921Z,98841.34
2018-12-02T22:33:57.560Z,98837.15
2018-12-02T22:36:28.247Z,98832.94
2018-12-02T22:38:58.899Z,98827.14
2018-12-02T22:41:29.528Z,98844.11
2018-12-02T22:44:00.191Z,98834.14
2018-12-02T22:46:30.768Z,98838.09
2018-12-02T22:49:01.425Z,98837.00
2018-12-02T22:51:32.088Z,98839.64
2018-12-02T22:54:02.738Z,98838.10
2018-12-02T22:56:33.406Z,98840.24
2018-12-02T22:59:04.086Z,98823.33
2018-12-02T23:01:39.957Z,98833.03
2018-12-02T23:04:10.626Z,98828.47
2018-12-02T23:06:41.319Z,98831.37
2018-12-02T23:09:12.314Z,98825.23
2018-12-02T23:11:42.964Z,98827.65
2018-12-02T23:14:13.688Z,98830.30
2018-12-02T23:16:59.899Z,98837.49
2018-12-02T23:19:30.535Z,98838.47
2018-12-02T23:22:01.283Z,98831.26
2018-12-02T23:24:31.959Z,98832.32
2018-12-02T23:27:02.590Z,98833.40
2018-12-02T23:29:33.940Z,98832.80
2018-12-02T23:32:05.124Z,98835.69
2018-12-02T23:34:35.808Z,98833.19
2018-12-02T23:37:06.602Z,98835.69
2018-12-02T23:39:38.615Z,98830.66
2018-12-02T23:42:07.992Z,98836.42
2018-12-02T23:44:38.748Z,98830.30
2018-12-02T23:47:09.394Z,98824.28
2018-12-02T23:49:39.986Z,98829.44
2018-12-02T23:52:10.648Z,98823.56
2018-12-02T23:54:41.359Z,98818.14
2018-12-02T23:57:12.029Z,98818.30
2018-12-02T23:59:42.741Z,98818.53
